createdAt,value
2018-05-14T00:02:23.893Z,15.76
2018-05-14T00:04:51.398Z,15.71
2018-05-14T00:07:18.918Z,15.68
2018-05-14T00:09:46.444Z,15.63
2018-05-14T00:12:14.040Z,15.60
2018-05-14T00:14:41.577Z,15.58
2018-05-14T00:17:09.187Z,15.56
2018-05-14T00:19:36.741Z,15.55
2018-05-14T00:22:04.302Z,15.56
2018-05-14T00:24:31.894Z,15.56
2018-05-14T00:26:59.409Z,15.54
2018-05-14T00:29:26.940Z,15.53
2018-05-14T00:31:54.504Z,15.53
2018-05-14T00:34:22.018Z,15.51
2018-05-14T00:36:49.591Z,15.46
2018-05-14T00:39:17.119Z,15.45
2018-05-14T00:41:44.645Z,15.45
2018-05-14T00:44:12.221Z,15.45
2018-05-14T00:46:39.750Z,15.50
2018-05-14T00:49:07.346Z,15.56
2018-05-14T00:51:34.921Z,15.58
2018-05-14T00:54:02.478Z,15.60
2018-05-14T00:56:30.059Z,15.64
2018-05-14T00:58:57.607Z,15.67
2018-05-14T01:01:25.140Z,15.68
2018-05-14T01:03:52.669Z,15.65
2018-05-14T01:06:20.218Z,15.61
2018-05-14T01:08:47.769Z,15.59
2018-05-14T01:11:15.286Z,15.58
2018-05-14T01:13:42.865Z,15.56
2018-05-14T01:16:10.379Z,15.54
2018-05-14T01:18:37.895Z,15.51
2018-05-14T01:21:05.462Z,15.52
2018-05-14T01:23:33.008Z,15.59
2018-05-14T01:26:00.577Z,15.64
2018-05-14T01:28:28.812Z,15.68
2018-05-14T01:30:56.353Z,15.72
2018-05-14T01:33:23.909Z,15.79
2018-05-14T01:35:51.484Z,15.85
2018-05-14T01:38:19.033Z,15.89
2018-05-14T01:40:46.571Z,15.91
2018-05-14T01:43:14.175Z,15.93
2018-05-14T01:45:41.711Z,15.95
2018-05-14T01:48:09.226Z,15.97
2018-05-14T01:50:36.787Z,15.99
2018-05-14T01:53:04.314Z,16.00
2018-05-14T01:55:31.886Z,16.00
2018-05-14T01:57:59.423Z,16.01
2018-05-14T02:00:26.947Z,16.00
2018-05-14T02:02:54.534Z,15.99
2018-05-14T02:05:22.044Z,15.97
2018-05-14T02:07:49.589Z,15.96
2018-05-14T02:10:17.097Z,15.93
2018-05-14T02:12:44.651Z,15.87
2018-05-14T02:15:12.193Z,15.85
2018-05-14T02:17:39.728Z,15.81
2018-05-14T02:20:07.301Z,15.77
2018-05-14T02:22:34.839Z,15.74
2018-05-14T02:25:02.377Z,15.68
2018-05-14T02:27:29.925Z,15.66
2018-05-14T02:29:57.550Z,15.65
2018-05-14T02:32:25.106Z,15.63
2018-05-14T02:34:52.645Z,15.60
2018-05-14T02:37:20.196Z,15.57
2018-05-14T02:39:47.747Z,15.57
2018-05-14T02:42:15.241Z,15.54
2018-05-14T02:44:42.839Z,15.56
2018-05-14T02:47:10.371Z,15.54
2018-05-14T02:49:37.918Z,15.53
2018-05-14T02:52:05.493Z,15.52
2018-05-14T02:54:33.033Z,15.52
2018-05-14T02:57:00.591Z,15.50
2018-05-14T02:59:28.127Z,15.51
2018-05-14T03:01:55.629Z,15.51
2018-05-14T03:04:23.197Z,15.49
2018-05-14T03:06:50.764Z,15.48
2018-05-14T03:09:18.338Z,15.46
2018-05-14T03:11:45.910Z,15.44
2018-05-14T03:14:13.450Z,15.45
2018-05-14T03:16:40.980Z,15.44
2018-05-14T03:19:08.515Z,15.46
2018-05-14T03:21:36.092Z,15.42
2018-05-14T03:24:03.620Z,15.45
2018-05-14T03:26:31.174Z,15.44
2018-05-14T03:28:58.714Z,15.43
2018-05-14T03:31:26.239Z,15.44
2018-05-14T03:33:53.854Z,15.41
2018-05-14T03:36:21.395Z,15.41
2018-05-14T03:38:49.003Z,15.33
2018-05-14T03:41:16.546Z,15.31
2018-05-14T03:43:44.118Z,15.31
2018-05-14T03:46:11.649Z,15.29
2018-05-14T03:48:39.189Z,15.30
2018-05-14T03:51:06.736Z,15.26
2018-05-14T03:53:34.330Z,15.35
2018-05-14T03:56:01.877Z,15.36
2018-05-14T03:58:41.330Z,15.39
2018-05-14T04:01:16.870Z,15.43
2018-05-14T04:06:45.107Z,15.56
2018-05-14T04:09:12.658Z,15.63
2018-05-14T04:11:40.207Z,15.75
2018-05-14T04:14:07.787Z,15.85
2018-05-14T04:16:35.349Z,15.99
2018-05-14T04:19:02.862Z,15.96
2018-05-14T04:21:30.424Z,16.20
2018-05-14T04:23:57.930Z,16.33
2018-05-14T04:26:25.480Z,16.37
2018-05-14T04:28:52.998Z,16.46
2018-05-14T04:31:20.549Z,16.73
2018-05-14T04:33:48.088Z,17.02
2018-05-14T04:36:15.646Z,17.02
2018-05-14T04:38:43.305Z,17.05
2018-05-14T04:41:10.862Z,17.19
2018-05-14T04:43:39.473Z,17.26
2018-05-14T04:46:07.095Z,17.25
2018-05-14T04:48:35.538Z,17.18
2018-05-14T04:51:03.091Z,17.22
2018-05-14T04:53:30.639Z,17.32
2018-05-14T04:55:58.144Z,17.52
2018-05-14T04:58:25.722Z,17.74
2018-05-14T05:00:53.237Z,17.83
2018-05-14T05:03:20.754Z,18.07
2018-05-14T05:05:48.299Z,18.30
2018-05-14T05:08:15.803Z,18.45
2018-05-14T05:10:43.368Z,18.38
2018-05-14T05:13:10.878Z,18.17
2018-05-14T05:15:38.431Z,18.12
2018-05-14T05:18:05.930Z,18.05
2018-05-14T05:20:33.493Z,18.02
2018-05-14T05:23:01.029Z,18.07
2018-05-14T05:25:28.552Z,17.90
2018-05-14T05:27:56.095Z,17.68
2018-05-14T05:30:23.623Z,17.60
2018-05-14T05:32:51.179Z,17.52
2018-05-14T05:35:18.777Z,17.51
2018-05-14T05:37:46.327Z,17.37
2018-05-14T05:40:13.887Z,17.22
2018-05-14T05:42:41.399Z,17.44
2018-05-14T05:45:08.970Z,17.70
2018-05-14T05:47:36.520Z,17.98
2018-05-14T05:50:04.176Z,18.22
2018-05-14T05:52:31.692Z,18.62
2018-05-14T05:54:59.327Z,19.06
2018-05-14T05:57:26.865Z,19.75
2018-05-14T05:59:54.574Z,20.27
2018-05-14T06:02:22.151Z,21.28
2018-05-14T06:04:50.121Z,21.92
2018-05-14T06:07:17.670Z,21.79
2018-05-14T06:09:45.182Z,21.70
2018-05-14T06:12:12.719Z,21.53
2018-05-14T06:14:40.218Z,21.52
2018-05-14T06:17:07.741Z,21.35
2018-05-14T06:19:35.259Z,21.53
2018-05-14T06:22:02.749Z,21.59
2018-05-14T06:24:30.311Z,21.76
2018-05-14T06:26:57.853Z,21.94
2018-05-14T06:29:25.397Z,21.59
2018-05-14T06:31:52.897Z,22.06
2018-05-14T06:34:20.406Z,24.85
2018-05-14T06:36:47.935Z,25.47
2018-05-14T06:39:15.439Z,25.02
2018-05-14T06:41:43.127Z,23.26
2018-05-14T06:44:11.534Z,23.85
2018-05-14T06:46:39.039Z,23.02
2018-05-14T06:49:06.564Z,22.60
2018-05-14T06:51:34.070Z,22.73
2018-05-14T06:54:01.599Z,22.74
2018-05-14T06:56:29.093Z,23.07
2018-05-14T06:58:57.221Z,23.16
2018-05-14T07:01:24.746Z,22.39
2018-05-14T07:03:52.244Z,22.42
2018-05-14T07:06:19.790Z,22.47
2018-05-14T07:08:47.290Z,22.52
2018-05-14T07:11:14.785Z,22.85
2018-05-14T07:13:42.314Z,23.10
2018-05-14T07:16:09.816Z,23.18
2018-05-14T07:18:37.351Z,23.39
2018-05-14T07:21:04.855Z,22.95
2018-05-14T07:23:32.353Z,24.04
2018-05-14T07:25:59.934Z,23.95
2018-05-14T07:28:27.414Z,24.77
2018-05-14T07:30:54.946Z,23.95
2018-05-14T07:33:22.448Z,25.88
2018-05-14T07:35:49.954Z,25.71
2018-05-14T07:38:17.483Z,23.67
2018-05-14T07:40:44.981Z,24.84
2018-05-14T07:43:12.507Z,23.60
2018-05-14T07:45:40.069Z,22.31
2018-05-14T07:48:07.533Z,21.52
2018-05-14T07:50:35.062Z,22.21
2018-05-14T07:53:02.570Z,22.77
2018-05-14T07:55:30.105Z,22.44
2018-05-14T07:57:57.602Z,22.26
2018-05-14T08:00:25.201Z,21.96
2018-05-14T08:02:52.662Z,21.64
2018-05-14T08:05:20.174Z,21.79
2018-05-14T08:07:47.700Z,21.83
2018-05-14T08:10:15.207Z,21.89
2018-05-14T08:12:42.728Z,22.13
2018-05-14T08:15:10.256Z,22.05
2018-05-14T08:17:37.755Z,21.94
2018-05-14T08:20:05.281Z,22.15
2018-05-14T08:22:32.777Z,22.39
2018-05-14T08:25:00.273Z,22.52
2018-05-14T08:27:27.795Z,22.80
2018-05-14T08:29:55.290Z,23.24
2018-05-14T08:32:22.825Z,23.23
2018-05-14T08:34:50.335Z,22.66
2018-05-14T08:37:17.834Z,21.94
2018-05-14T08:39:45.362Z,22.09
2018-05-14T08:42:12.866Z,21.76
2018-05-14T08:44:40.399Z,22.12
2018-05-14T08:47:07.909Z,21.63
2018-05-14T08:49:35.410Z,20.88
2018-05-14T08:52:03.925Z,20.96
2018-05-14T08:54:31.514Z,20.89
2018-05-14T08:56:58.990Z,21.11
2018-05-14T08:59:26.485Z,20.66
2018-05-14T09:01:53.986Z,20.44
2018-05-14T09:04:21.737Z,20.55
2018-05-14T09:06:49.040Z,20.49
2018-05-14T09:09:16.571Z,20.39
2018-05-14T09:11:44.075Z,20.65
2018-05-14T09:14:11.578Z,20.59
2018-05-14T09:16:39.104Z,20.30
2018-05-14T09:19:06.614Z,19.94
2018-05-14T09:21:34.152Z,20.11
2018-05-14T09:24:01.663Z,20.67
2018-05-14T09:26:29.166Z,20.81
2018-05-14T09:28:56.931Z,20.83
2018-05-14T09:31:24.463Z,21.20
2018-05-14T09:33:51.982Z,21.15
2018-05-14T09:36:19.487Z,20.80
2018-05-14T09:38:46.990Z,20.34
2018-05-14T09:41:14.514Z,20.36
2018-05-14T09:43:42.018Z,20.45
2018-05-14T09:46:09.550Z,20.25
2018-05-14T09:48:37.051Z,20.06
2018-05-14T09:51:04.557Z,20.01
2018-05-14T09:53:32.086Z,20.28
2018-05-14T09:55:59.590Z,20.69
2018-05-14T09:58:27.119Z,21.20
2018-05-14T10:00:54.631Z,21.41
2018-05-14T10:03:22.135Z,21.09
2018-05-14T10:05:49.666Z,21.09
2018-05-14T10:08:17.176Z,20.56
2018-05-14T10:10:44.712Z,20.73
2018-05-14T10:13:12.237Z,21.05
2018-05-14T10:15:39.940Z,21.21
2018-05-14T10:18:07.482Z,21.29
2018-05-14T10:20:35.010Z,21.17
2018-05-14T10:23:02.508Z,20.67
2018-05-14T10:25:30.270Z,20.74
2018-05-14T10:27:57.789Z,21.06
2018-05-14T10:30:25.296Z,20.94
2018-05-14T10:32:52.843Z,21.13
2018-05-14T10:35:20.346Z,21.16
2018-05-14T10:37:47.855Z,21.02
2018-05-14T10:40:15.383Z,21.75
2018-05-14T10:42:42.889Z,22.64
2018-05-14T10:45:10.416Z,23.18
2018-05-14T10:47:37.919Z,23.59
2018-05-14T10:50:05.473Z,23.87
2018-05-14T10:52:32.998Z,23.74
2018-05-14T10:55:00.511Z,22.53
2018-05-14T10:57:28.041Z,21.67
2018-05-14T10:59:55.539Z,21.49
2018-05-14T11:02:23.047Z,21.16
2018-05-14T11:04:50.570Z,21.01
2018-05-14T11:07:18.082Z,21.05
2018-05-14T11:09:45.609Z,21.35
2018-05-14T11:12:13.101Z,20.90
2018-05-14T11:14:40.661Z,20.93
2018-05-14T11:17:08.186Z,21.26
2018-05-14T11:19:35.685Z,21.68
2018-05-14T11:22:03.214Z,21.42
2018-05-14T11:24:30.721Z,21.58
2018-05-14T11:26:58.217Z,21.82
2018-05-14T11:29:25.741Z,22.15
2018-05-14T11:31:53.243Z,22.62
2018-05-14T11:34:20.767Z,22.60
2018-05-14T11:36:48.269Z,23.01
2018-05-14T11:39:15.777Z,22.60
2018-05-14T11:41:43.322Z,22.98
2018-05-14T11:44:10.824Z,23.17
2018-05-14T11:46:38.350Z,23.22
2018-05-14T11:49:05.851Z,22.67
2018-05-14T11:51:33.362Z,22.48
2018-05-14T11:54:00.876Z,22.99
2018-05-14T11:56:28.386Z,23.32
2018-05-14T11:58:55.907Z,23.77
2018-05-14T12:01:23.402Z,23.95
2018-05-14T12:03:50.893Z,23.74
2018-05-14T12:06:18.429Z,23.30
2018-05-14T12:08:45.921Z,22.93
2018-05-14T12:11:13.426Z,22.86
2018-05-14T12:13:40.949Z,23.12
2018-05-14T12:16:08.578Z,23.29
2018-05-14T12:18:36.012Z,23.21
2018-05-14T12:21:03.511Z,23.13
2018-05-14T12:23:31.081Z,22.94
2018-05-14T12:25:58.608Z,22.96
2018-05-14T12:28:26.104Z,23.08
2018-05-14T12:30:53.638Z,22.95
2018-05-14T12:33:21.156Z,23.06
2018-05-14T12:35:48.663Z,23.54
2018-05-14T12:38:16.192Z,23.66
2018-05-14T12:40:43.695Z,23.33
2018-05-14T12:43:11.238Z,23.43
2018-05-14T12:45:38.744Z,23.23
2018-05-14T12:48:06.256Z,23.14
2018-05-14T12:50:33.780Z,23.30
2018-05-14T12:53:01.287Z,22.78
2018-05-14T12:55:28.847Z,22.65
2018-05-14T12:57:56.359Z,22.61
2018-05-14T13:00:23.859Z,22.78
2018-05-14T13:02:51.387Z,23.27
2018-05-14T13:05:18.892Z,23.61
2018-05-14T13:07:46.418Z,23.86
2018-05-14T13:10:13.923Z,23.92
2018-05-14T13:12:41.423Z,23.66
2018-05-14T13:15:08.954Z,23.89
2018-05-14T13:17:36.453Z,23.60
2018-05-14T13:20:03.970Z,23.37
2018-05-14T13:22:31.466Z,23.27
2018-05-14T13:24:58.970Z,23.26
2018-05-14T13:27:26.498Z,23.39
2018-05-14T13:29:54.006Z,24.04
2018-05-14T13:32:21.538Z,23.42
2018-05-14T13:34:49.037Z,23.04
2018-05-14T13:37:16.552Z,22.88
2018-05-14T13:39:44.082Z,22.69
2018-05-14T13:42:11.653Z,22.67
2018-05-14T13:44:39.181Z,22.52
2018-05-14T13:47:06.702Z,22.61
2018-05-14T13:49:34.207Z,22.64
2018-05-14T13:52:01.737Z,22.66
2018-05-14T13:54:29.243Z,22.51
2018-05-14T13:56:56.765Z,22.60
2018-05-14T13:59:24.262Z,22.54
2018-05-14T14:01:51.764Z,22.63
2018-05-14T14:04:19.281Z,22.78
2018-05-14T14:06:46.765Z,23.02
2018-05-14T14:09:14.288Z,22.88
2018-05-14T14:11:41.786Z,22.87
2018-05-14T14:14:09.286Z,22.94
2018-05-14T14:16:36.811Z,22.93
2018-05-14T14:19:04.310Z,23.00
2018-05-14T14:21:31.830Z,22.95
2018-05-14T14:23:59.647Z,23.03
2018-05-14T14:26:26.834Z,23.06
2018-05-14T14:28:54.366Z,22.98
2018-05-14T14:31:21.871Z,23.14
2018-05-14T14:33:49.399Z,23.04
2018-05-14T14:36:17.022Z,22.81
2018-05-14T14:38:44.444Z,22.63
2018-05-14T14:41:11.971Z,22.55
2018-05-14T14:43:39.475Z,22.39
2018-05-14T14:46:07.007Z,22.12
2018-05-14T14:48:34.518Z,22.14
2018-05-14T14:51:02.036Z,21.88
2018-05-14T14:53:29.655Z,21.79
2018-05-14T14:55:57.106Z,21.71
2018-05-14T14:58:24.643Z,21.54
2018-05-14T15:00:52.136Z,20.70
2018-05-14T15:03:19.654Z,20.31
2018-05-14T15:05:47.179Z,20.36
2018-05-14T15:08:14.679Z,20.46
2018-05-14T15:10:42.216Z,20.66
2018-05-14T15:13:09.720Z,20.83
2018-05-14T15:15:37.208Z,20.88
2018-05-14T15:18:04.728Z,20.93
2018-05-14T15:20:32.218Z,21.03
2018-05-14T15:22:59.745Z,20.98
2018-05-14T15:25:27.239Z,20.98
2018-05-14T15:27:54.725Z,20.93
2018-05-14T15:30:22.237Z,20.97
2018-05-14T15:32:49.727Z,21.01
2018-05-14T15:35:17.248Z,20.97
2018-05-14T15:37:44.746Z,21.02
2018-05-14T15:40:12.266Z,21.07
2018-05-14T15:42:40.762Z,20.94
2018-05-14T15:45:08.253Z,20.99
2018-05-14T15:47:35.780Z,20.99
2018-05-14T15:50:03.353Z,21.11
2018-05-14T15:52:30.803Z,21.14
2018-05-14T15:54:58.322Z,21.06
2018-05-14T15:57:25.804Z,21.01
2018-05-14T15:59:53.317Z,20.81
2018-05-14T16:02:20.803Z,20.79
2018-05-14T16:04:48.298Z,20.75
2018-05-14T16:07:15.807Z,20.77
2018-05-14T16:09:43.296Z,20.68
2018-05-14T16:12:10.890Z,20.66
2018-05-14T16:14:38.387Z,20.81
2018-05-14T16:17:05.904Z,20.79
2018-05-14T16:19:33.421Z,20.88
2018-05-14T16:22:00.915Z,20.86
2018-05-14T16:24:28.438Z,20.88
2018-05-14T16:26:55.934Z,20.81
2018-05-14T16:29:23.431Z,20.80
2018-05-14T16:31:50.950Z,20.87
2018-05-14T16:34:18.441Z,20.73
2018-05-14T16:36:45.966Z,20.58
2018-05-14T16:39:13.458Z,20.49
2018-05-14T16:41:40.970Z,20.48
2018-05-14T16:44:08.533Z,20.50
2018-05-14T16:46:36.027Z,20.49
2018-05-14T16:49:03.537Z,20.54
2018-05-14T16:51:31.047Z,20.48
2018-05-14T16:53:58.543Z,20.44
2018-05-14T16:56:26.049Z,20.35
2018-05-14T16:58:53.539Z,20.23
2018-05-14T17:01:21.069Z,20.18
2018-05-14T17:03:48.557Z,20.18
2018-05-14T17:06:16.058Z,20.07
2018-05-14T17:08:43.569Z,20.10
2018-05-14T17:11:11.063Z,20.06
2018-05-14T17:13:38.598Z,20.04
2018-05-14T17:16:06.099Z,20.03
2018-05-14T17:18:33.594Z,20.02
2018-05-14T17:21:01.109Z,19.97
2018-05-14T17:23:28.610Z,19.97
2018-05-14T17:25:56.139Z,19.93
2018-05-14T17:28:23.642Z,19.92
2018-05-14T17:30:51.134Z,19.93
2018-05-14T17:33:18.887Z,19.94
2018-05-14T17:35:46.391Z,19.96
2018-05-14T17:38:13.894Z,19.93
2018-05-14T17:40:41.407Z,19.95
2018-05-14T17:43:08.899Z,19.88
2018-05-14T17:45:36.390Z,19.82
2018-05-14T17:48:03.905Z,19.75
2018-05-14T17:50:31.406Z,19.69
2018-05-14T17:52:58.996Z,19.60
2018-05-14T17:55:26.434Z,19.65
2018-05-14T17:57:53.943Z,19.60
2018-05-14T18:00:21.458Z,19.56
2018-05-14T18:02:49.792Z,19.53
2018-05-14T18:05:17.353Z,19.50
2018-05-14T18:07:44.881Z,19.42
2018-05-14T18:10:12.396Z,19.36
2018-05-14T18:12:39.928Z,19.33
2018-05-14T18:15:07.419Z,19.30
2018-05-14T18:17:35.051Z,19.19
2018-05-14T18:20:07.960Z,19.07
2018-05-14T18:22:40.925Z,18.97
2018-05-14T18:25:13.935Z,18.89
2018-05-14T18:27:47.074Z,18.76
2018-05-14T18:30:14.600Z,18.72
2018-05-14T18:35:54.278Z,18.65
2018-05-14T18:38:21.778Z,18.68
2018-05-14T18:40:49.302Z,18.66
2018-05-14T18:43:16.793Z,18.59
2018-05-14T18:45:44.277Z,18.63
2018-05-14T18:48:11.803Z,18.66
2018-05-14T18:50:39.301Z,18.73
2018-05-14T18:53:06.826Z,18.81
2018-05-14T18:55:34.326Z,18.91
2018-05-14T18:58:01.824Z,18.88
2018-05-14T19:00:29.337Z,18.85
2018-05-14T19:02:56.843Z,18.83
2018-05-14T19:05:24.367Z,18.84
2018-05-14T19:07:51.844Z,18.71
2018-05-14T19:10:25.073Z,18.68
2018-05-14T19:12:52.599Z,18.64
2018-05-14T19:15:25.837Z,18.54
2018-05-14T19:17:58.892Z,18.51
2018-05-14T19:20:26.401Z,18.46
2018-05-14T19:22:59.414Z,18.54
2018-05-14T19:25:27.034Z,18.51
2018-05-14T19:28:00.242Z,18.39
2018-05-14T19:30:27.767Z,18.43
2018-05-14T19:32:55.283Z,18.43
2018-05-14T19:35:28.421Z,18.46
2018-05-14T19:37:55.911Z,18.48
2018-05-14T19:40:29.005Z,18.42
2018-05-14T19:42:56.481Z,18.41
2018-05-14T19:45:23.988Z,18.35
2018-05-14T19:47:51.519Z,18.35
2018-05-14T19:50:19.067Z,18.29
2018-05-14T19:52:46.605Z,18.11
2018-05-14T19:55:14.119Z,18.09
2018-05-14T19:57:41.631Z,18.01
2018-05-14T20:00:09.182Z,17.86
2018-05-14T20:02:36.681Z,17.82
2018-05-14T20:05:04.233Z,17.77
2018-05-14T20:07:31.747Z,17.69
2018-05-14T20:09:59.338Z,17.67
2018-05-14T20:12:26.882Z,17.53
2018-05-14T20:14:54.401Z,17.47
2018-05-14T20:17:21.958Z,17.54
2018-05-14T20:19:49.505Z,17.41
2018-05-14T20:22:17.026Z,17.44
2018-05-14T20:24:44.653Z,17.32
2018-05-14T20:27:12.183Z,17.27
2018-05-14T20:29:39.749Z,17.29
2018-05-14T20:32:07.274Z,17.30
2018-05-14T20:34:34.802Z,17.19
2018-05-14T20:37:02.340Z,17.23
2018-05-14T20:39:29.889Z,17.13
2018-05-14T20:41:57.405Z,17.09
2018-05-14T20:44:24.946Z,16.99
2018-05-14T20:46:52.442Z,16.90
2018-05-14T20:49:19.990Z,16.88
2018-05-14T20:51:47.514Z,14.55
2018-05-14T20:54:15.382Z,16.78
2018-05-14T20:56:42.921Z,16.73
2018-05-14T20:59:10.446Z,16.70
2018-05-14T21:01:38.006Z,16.69
2018-05-14T21:04:05.533Z,16.65
2018-05-14T21:06:33.091Z,16.53
2018-05-14T21:09:00.654Z,16.42
2018-05-14T21:11:28.187Z,16.34
2018-05-14T21:13:55.764Z,16.40
2018-05-14T21:16:23.286Z,16.34
2018-05-14T21:18:50.830Z,16.29
2018-05-14T21:21:18.345Z,16.21
2018-05-14T21:23:45.854Z,16.10
2018-05-14T21:26:13.406Z,16.13
2018-05-14T21:28:40.906Z,16.13
2018-05-14T21:31:08.429Z,16.06
2018-05-14T21:33:36.237Z,16.12
2018-05-14T21:36:03.774Z,16.08
2018-05-14T21:38:31.294Z,15.98
2018-05-14T21:40:58.800Z,15.93
2018-05-14T21:43:26.378Z,15.90
2018-05-14T21:45:53.917Z,15.03
2018-05-14T21:48:21.442Z,15.79
2018-05-14T21:50:48.981Z,15.82
2018-05-14T21:53:17.967Z,15.79
2018-05-14T21:55:45.545Z,15.80
2018-05-14T21:58:13.066Z,15.84
2018-05-14T22:00:40.620Z,15.75
2018-05-14T22:03:08.269Z,15.69
2018-05-14T22:08:32.238Z,15.57
2018-05-14T22:10:59.818Z,15.50
2018-05-14T22:13:27.331Z,15.49
2018-05-14T22:15:54.874Z,15.48
2018-05-14T22:18:22.440Z,15.40
2018-05-14T22:20:49.986Z,15.37
2018-05-14T22:23:17.537Z,15.27
2018-05-14T22:25:45.108Z,15.26
2018-05-14T22:28:12.655Z,15.25
2018-05-14T22:30:40.188Z,15.15
2018-05-14T22:33:07.735Z,15.02
2018-05-14T22:35:35.314Z,14.95
2018-05-14T22:38:03.103Z,14.89
2018-05-14T22:40:30.661Z,14.82
2018-05-14T22:42:58.217Z,14.77
2018-05-14T22:45:25.784Z,14.75
2018-05-14T22:47:53.374Z,14.71
2018-05-14T22:50:20.890Z,14.73
2018-05-14T22:52:48.409Z,14.75
2018-05-14T22:55:15.957Z,14.74
2018-05-14T22:57:43.478Z,14.58
2018-05-14T23:00:11.043Z,14.56
2018-05-14T23:02:38.593Z,14.62
2018-05-14T23:05:06.146Z,14.50
2018-05-14T23:07:33.678Z,14.50
2018-05-14T23:10:01.206Z,14.54
2018-05-14T23:12:28.741Z,14.50
2018-05-14T23:14:56.286Z,14.49
2018-05-14T23:17:23.810Z,14.56
2018-05-14T23:19:51.342Z,14.52
2018-05-14T23:22:18.944Z,14.49
2018-05-14T23:24:46.512Z,14.57
2018-05-14T23:27:14.043Z,14.50
2018-05-14T23:29:41.637Z,14.48
2018-05-14T23:32:09.176Z,14.37
2018-05-14T23:34:36.694Z,14.35
2018-05-14T23:37:04.222Z,14.28
2018-05-14T23:39:31.746Z,14.22
2018-05-14T23:41:59.253Z,14.18
2018-05-14T23:44:26.812Z,14.14
2018-05-14T23:46:54.371Z,14.13
2018-05-14T23:49:22.005Z,14.10
2018-05-14T23:51:49.522Z,14.05
2018-05-14T23:54:17.058Z,14.03
2018-05-14T23:56:44.652Z,13.97
2018-05-14T23:59:12.176Z,13.92
